Time;durP1;ratioP1;P1;durP2;ratioP2;P2;SDS_P1;SDS_P2;PMS_P1;PMS_P2;Temp;Humidity;BMP_temperature;BMP_pressure;BME280_temperature;BME280_humidity;BME280_pressure;Samples;Min_cycle;Max_cycle;Signal;HPM_P1;HPM_P2
2021/07/25 07:48:23;;;;;;;;;;;;;;;;;;;;;
2021/07/25 07:55:11;;;;;;;;;;;;;;;;;;;;;
2021/07/25 08:26:24;;;;;;;;;;;;;;;;;;;;;
2021/07/25 08:44:12;;;;;;;6.15;4.78;;;21.80;90.30;;;;;;5961589;23;20015;-90
2021/07/25 15:47:01;;;;;;;;;;;;;;;;;;;;;
2021/07/25 15:49:54;;;;;;;;;;;;;;;;;;;;;
2021/07/25 16:51:09;;;;;;;;;;;;;;;;;;;;;
2021/07/25 16:54:32;;;;;;;1.55;1.05;;;25.60;65.50;;;;;;5754315;24;20527;-88
2021/07/25 17:00:22;;;;;;;1.80;1.40;;;25.50;65.30;;;;;;5983822;24;20011;-86
2021/07/25 17:02:58;;;;;;;;;;;;;;;;;;;;;
2021/07/25 17:05:36;;;;;;;2.17;1.33;;;25.30;65.50;;;;;;6101797;23;20081;-86
2021/07/25 17:08:04;;;;;;;3.60;3.17;;;25.30;65.10;;;;;;6252246;22;20002;-86
2021/07/25 17:10:42;;;;;;;5.00;3.05;;;25.30;65.50;;;;;;6251598;22;20069;-86
2021/07/25 17:13:15;;;;;;;5.72;4.10;;;25.30;67.40;;;;;;6251879;22;20077;-86
2021/07/25 17:15:42;;;;;;;6.50;4.03;;;25.30;68.20;;;;;;6227263;22;20003;-86
2021/07/25 17:18:19;;;;;;;7.63;4.68;;;25.30;69.20;;;;;;6250152;22;19999;-86
2021/07/25 17:20:45;;;;;;;5.72;4.60;;;25.30;69.80;;;;;;6228139;22;20421;-87
2021/07/25 17:23:13;;;;;;;6.75;4.95;;;25.20;70.80;;;;;;6225896;22;20007;-85
2021/07/25 17:25:44;;;;;;;7.07;5.15;;;25.10;70.80;;;;;;6251752;22;20083;-85
2021/07/25 17:28:12;;;;;;;6.65;5.10;;;25.10;71.50;;;;;;6252013;22;20004;-88
2021/07/25 17:30:40;;;;;;;5.72;5.18;;;24.90;72.10;;;;;;6251430;22;20425;-86
2021/07/25 17:33:18;;;;;;;7.40;4.88;;;24.90;72.70;;;;;;6251714;22;20000;-85
2021/07/25 17:35:49;;;;;;;5.25;4.50;;;24.80;72.70;;;;;;6251711;22;20027;-85
2021/07/25 17:38:31;;;;;;;;;;;;;;;;;;;;;
2021/07/25 18:14:48;;;;;;;;;;;;;;;;;;;;;
2021/07/25 18:35:13;;;;;;;;;;;;;;;;;;;;;
2021/07/25 18:48:49;;;;;;;;;;;;;;;;;;;;;
2021/07/25 19:06:54;;;;;;;;;;;;;;;;;;;;;
2021/07/25 19:13:43;;;;;;;2.35;1.67;;;22.20;85.50;;;;;;6013789;23;20087;-93
2021/07/25 19:16:37;;;;;;;2.25;1.50;;;22.20;86.10;;;;;;6064543;23;20006;-93
2021/07/25 19:19:02;;;;;;;4.80;1.80;;;22.00;86.50;;;;;;6115665;23;20010;-84
2021/07/25 19:21:31;;;;;;;2.78;2.10;;;21.90;86.70;;;;;;6185335;22;20118;-83
2021/07/25 19:23:57;;;;;;;3.28;2.00;;;21.80;87.00;;;;;;6248559;22;20068;-84
2021/07/25 19:26:25;;;;;;;4.07;2.10;;;21.80;87.30;;;;;;6248867;22;20007;-84
2021/07/25 19:28:51;;;;;;;4.43;2.13;;;21.80;87.90;;;;;;6274120;22;20318;-83
2021/07/25 19:31:18;;;;;;;3.00;2.03;;;21.80;88.30;;;;;;6248206;22;20007;-83
2021/07/25 19:33:45;;;;;;;3.35;2.05;;;21.70;88.30;;;;;;6275422;22;20004;-83
2021/07/25 19:36:11;;;;;;;3.50;2.22;;;21.60;88.50;;;;;;6248066;22;20011;-85
2021/07/25 19:38:37;;;;;;;3.63;2.10;;;21.50;88.40;;;;;;6223603;22;20086;-84
2021/07/25 19:41:07;;;;;;;3.78;1.95;;;21.50;88.50;;;;;;6275129;22;20026;-85
2021/07/25 19:43:33;;;;;;;4.38;2.15;;;21.40;88.50;;;;;;6275343;22;20011;-84
2021/07/25 19:45:59;;;;;;;2.38;1.90;;;21.40;88.50;;;;;;6248364;22;20440;-84
